sensor_id;sensor_type;location;lat;lon;timestamp;temperature;humidity
78694;SHT31;68029;51.978;5.646;2023-03-23T00:02:04;13.4;73.4
78694;SHT31;68029;51.978;5.646;2023-03-23T00:04:34;13.4;73.2
78694;SHT31;68029;51.978;5.646;2023-03-23T00:07:04;13.4;73.2
78694;SHT31;68029;51.978;5.646;2023-03-23T00:09:33;13.4;73.3
78694;SHT31;68029;51.978;5.646;2023-03-23T00:12:08;13.5;73.2
78694;SHT31;68029;51.978;5.646;2023-03-23T00:14:42;13.5;73.0
78694;SHT31;68029;51.978;5.646;2023-03-23T00:17:12;13.5;72.8
78694;SHT31;68029;51.978;5.646;2023-03-23T00:19:42;13.5;72.4
78694;SHT31;68029;51.978;5.646;2023-03-23T00:22:18;13.5;73.0
78694;SHT31;68029;51.978;5.646;2023-03-23T00:24:49;13.5;72.5
78694;SHT31;68029;51.978;5.646;2023-03-23T00:27:20;13.5;72.4
78694;SHT31;68029;51.978;5.646;2023-03-23T00:29:51;13.5;72.4
78694;SHT31;68029;51.978;5.646;2023-03-23T00:32:24;13.5;72.4
78694;SHT31;68029;51.978;5.646;2023-03-23T00:34:57;13.5;72.8
78694;SHT31;68029;51.978;5.646;2023-03-23T00:37:27;13.5;72.7
78694;SHT31;68029;51.978;5.646;2023-03-23T00:39:57;13.5;72.7
78694;SHT31;68029;51.978;5.646;2023-03-23T00:42:28;13.5;73.2
78694;SHT31;68029;51.978;5.646;2023-03-23T00:44:57;13.5;73.8
78694;SHT31;68029;51.978;5.646;2023-03-23T00:47:28;13.5;74.3
78694;SHT31;68029;51.978;5.646;2023-03-23T00:49:58;13.5;74.4
78694;SHT31;68029;51.978;5.646;2023-03-23T00:52:28;13.5;74.2
78694;SHT31;68029;51.978;5.646;2023-03-23T00:54:59;13.4;74.1
78694;SHT31;68029;51.978;5.646;2023-03-23T00:57:28;13.4;74.2
78694;SHT31;68029;51.978;5.646;2023-03-23T00:59:58;13.4;73.9
78694;SHT31;68029;51.978;5.646;2023-03-23T01:02:27;13.3;73.7
78694;SHT31;68029;51.978;5.646;2023-03-23T01:04:57;13.3;73.8
78694;SHT31;68029;51.978;5.646;2023-03-23T01:07:26;13.3;73.9
78694;SHT31;68029;51.978;5.646;2023-03-23T01:09:58;13.3;73.7
78694;SHT31;68029;51.978;5.646;2023-03-23T01:12:29;13.3;73.6
78694;SHT31;68029;51.978;5.646;2023-03-23T01:14:58;13.3;73.5
78694;SHT31;68029;51.978;5.646;2023-03-23T01:17:28;13.3;73.3
78694;SHT31;68029;51.978;5.646;2023-03-23T01:19:57;13.2;73.3
78694;SHT31;68029;51.978;5.646;2023-03-23T01:22:27;13.2;73.3
78694;SHT31;68029;51.978;5.646;2023-03-23T01:24:56;13.3;72.9
78694;SHT31;68029;51.978;5.646;2023-03-23T01:27:26;13.3;73.1
78694;SHT31;68029;51.978;5.646;2023-03-23T01:29:55;13.3;73.0
78694;SHT31;68029;51.978;5.646;2023-03-23T01:32:25;13.3;72.7
78694;SHT31;68029;51.978;5.646;2023-03-23T01:34:55;13.3;72.8
78694;SHT31;68029;51.978;5.646;2023-03-23T01:37:24;13.3;72.8
78694;SHT31;68029;51.978;5.646;2023-03-23T01:39:55;13.3;72.7
78694;SHT31;68029;51.978;5.646;2023-03-23T01:42:31;13.3;72.6
78694;SHT31;68029;51.978;5.646;2023-03-23T01:46:51;13.3;72.9
78694;SHT31;68029;51.978;5.646;2023-03-23T01:49:26;13.3;72.7
78694;SHT31;68029;51.978;5.646;2023-03-23T01:52:01;13.3;72.4
78694;SHT31;68029;51.978;5.646;2023-03-23T01:54:33;13.3;72.4
78694;SHT31;68029;51.978;5.646;2023-03-23T01:57:09;13.3;72.5
78694;SHT31;68029;51.978;5.646;2023-03-23T01:59:42;13.3;72.2
78694;SHT31;68029;51.978;5.646;2023-03-23T02:02:13;13.4;72.1
78694;SHT31;68029;51.978;5.646;2023-03-23T02:04:44;13.4;72.3
78694;SHT31;68029;51.978;5.646;2023-03-23T02:07:16;13.4;72.4
78694;SHT31;68029;51.978;5.646;2023-03-23T02:09:47;13.4;72.3
78694;SHT31;68029;51.978;5.646;2023-03-23T02:12:18;13.4;72.6
78694;SHT31;68029;51.978;5.646;2023-03-23T02:14:48;13.4;72.6
78694;SHT31;68029;51.978;5.646;2023-03-23T02:17:25;13.4;72.4
78694;SHT31;68029;51.978;5.646;2023-03-23T02:20:10;13.4;72.5
78694;SHT31;68029;51.978;5.646;2023-03-23T02:23:21;13.4;72.4
78694;SHT31;68029;51.978;5.646;2023-03-23T02:26:02;13.5;72.5
78694;SHT31;68029;51.978;5.646;2023-03-23T02:30:57;13.5;72.5
78694;SHT31;68029;51.978;5.646;2023-03-23T02:33:40;13.5;72.2
78694;SHT31;68029;51.978;5.646;2023-03-23T02:36:21;13.6;72.1
78694;SHT31;68029;51.978;5.646;2023-03-23T02:39:00;13.6;72.2
78694;SHT31;68029;51.978;5.646;2023-03-23T02:41:38;13.7;71.8
78694;SHT31;68029;51.978;5.646;2023-03-23T02:44:11;13.7;71.7
78694;SHT31;68029;51.978;5.646;2023-03-23T02:46:43;13.7;71.7
78694;SHT31;68029;51.978;5.646;2023-03-23T02:49:15;13.7;71.7
78694;SHT31;68029;51.978;5.646;2023-03-23T02:51:50;13.7;71.6
78694;SHT31;68029;51.978;5.646;2023-03-23T02:54:21;13.7;71.5
78694;SHT31;68029;51.978;5.646;2023-03-23T02:56:54;13.7;71.4
78694;SHT31;68029;51.978;5.646;2023-03-23T02:59:25;13.7;71.6
78694;SHT31;68029;51.978;5.646;2023-03-23T03:02:01;13.7;71.5
78694;SHT31;68029;51.978;5.646;2023-03-23T03:04:35;13.7;71.7
78694;SHT31;68029;51.978;5.646;2023-03-23T03:07:23;13.7;71.7
78694;SHT31;68029;51.978;5.646;2023-03-23T03:09:59;13.7;71.4
78694;SHT31;68029;51.978;5.646;2023-03-23T03:12:40;13.8;71.2
78694;SHT31;68029;51.978;5.646;2023-03-23T03:15:23;13.8;71.2
78694;SHT31;68029;51.978;5.646;2023-03-23T03:17:59;13.8;71.2
78694;SHT31;68029;51.978;5.646;2023-03-23T03:20:32;13.8;71.5
78694;SHT31;68029;51.978;5.646;2023-03-23T03:23:05;13.8;70.6
78694;SHT31;68029;51.978;5.646;2023-03-23T03:25:40;13.8;70.5
78694;SHT31;68029;51.978;5.646;2023-03-23T03:28:17;13.8;70.2
78694;SHT31;68029;51.978;5.646;2023-03-23T03:30:52;13.8;69.8
78694;SHT31;68029;51.978;5.646;2023-03-23T03:33:24;13.9;69.7
78694;SHT31;68029;51.978;5.646;2023-03-23T03:35:56;13.9;69.9
78694;SHT31;68029;51.978;5.646;2023-03-23T03:38:27;13.9;69.9
78694;SHT31;68029;51.978;5.646;2023-03-23T03:40:56;13.9;70.0
78694;SHT31;68029;51.978;5.646;2023-03-23T03:43:26;13.9;69.8
78694;SHT31;68029;51.978;5.646;2023-03-23T03:45:55;13.9;70.0
78694;SHT31;68029;51.978;5.646;2023-03-23T03:48:25;13.9;70.3
78694;SHT31;68029;51.978;5.646;2023-03-23T03:50:54;13.9;69.9
78694;SHT31;68029;51.978;5.646;2023-03-23T03:53:27;13.9;69.8
78694;SHT31;68029;51.978;5.646;2023-03-23T03:55:57;13.9;69.8
78694;SHT31;68029;51.978;5.646;2023-03-23T03:58:30;13.9;69.6
78694;SHT31;68029;51.978;5.646;2023-03-23T04:01:03;13.9;69.8
78694;SHT31;68029;51.978;5.646;2023-03-23T04:03:33;13.9;69.7
78694;SHT31;68029;51.978;5.646;2023-03-23T04:06:03;13.9;69.7
78694;SHT31;68029;51.978;5.646;2023-03-23T04:08:34;13.9;69.8
78694;SHT31;68029;51.978;5.646;2023-03-23T04:11:05;13.9;69.4
78694;SHT31;68029;51.978;5.646;2023-03-23T04:13:34;13.9;69.3
78694;SHT31;68029;51.978;5.646;2023-03-23T04:16:04;13.9;69.4
78694;SHT31;68029;51.978;5.646;2023-03-23T04:18:35;13.9;69.2
78694;SHT31;68029;51.978;5.646;2023-03-23T04:21:05;14.0;68.8
78694;SHT31;68029;51.978;5.646;2023-03-23T04:23:36;14.0;68.6
78694;SHT31;68029;51.978;5.646;2023-03-23T04:26:07;14.0;68.5
78694;SHT31;68029;51.978;5.646;2023-03-23T04:28:40;14.0;68.6
78694;SHT31;68029;51.978;5.646;2023-03-23T04:31:10;14.0;68.3
78694;SHT31;68029;51.978;5.646;2023-03-23T04:33:40;14.0;68.4
78694;SHT31;68029;51.978;5.646;2023-03-23T04:36:11;14.1;68.3
78694;SHT31;68029;51.978;5.646;2023-03-23T04:38:43;14.1;68.7
78694;SHT31;68029;51.978;5.646;2023-03-23T04:41:13;14.1;68.5
78694;SHT31;68029;51.978;5.646;2023-03-23T04:43:42;14.1;68.3
78694;SHT31;68029;51.978;5.646;2023-03-23T04:46:12;14.1;67.9
78694;SHT31;68029;51.978;5.646;2023-03-23T04:48:45;14.1;67.3
78694;SHT31;68029;51.978;5.646;2023-03-23T04:51:15;14.1;67.1
78694;SHT31;68029;51.978;5.646;2023-03-23T04:53:46;14.1;67.1
78694;SHT31;68029;51.978;5.646;2023-03-23T04:56:17;14.1;67.3
78694;SHT31;68029;51.978;5.646;2023-03-23T04:58:47;14.1;67.1
78694;SHT31;68029;51.978;5.646;2023-03-23T05:01:16;14.1;66.8
78694;SHT31;68029;51.978;5.646;2023-03-23T05:03:47;14.1;67.1
78694;SHT31;68029;51.978;5.646;2023-03-23T05:06:17;14.1;67.0
78694;SHT31;68029;51.978;5.646;2023-03-23T05:08:46;14.1;67.1
78694;SHT31;68029;51.978;5.646;2023-03-23T05:11:17;14.1;67.2
78694;SHT31;68029;51.978;5.646;2023-03-23T05:13:48;14.1;66.9
78694;SHT31;68029;51.978;5.646;2023-03-23T05:16:18;14.1;66.6
78694;SHT31;68029;51.978;5.646;2023-03-23T05:18:47;14.1;66.9
78694;SHT31;68029;51.978;5.646;2023-03-23T05:21:19;14.1;66.9
78694;SHT31;68029;51.978;5.646;2023-03-23T05:23:49;14.1;67.0
78694;SHT31;68029;51.978;5.646;2023-03-23T05:26:22;14.1;67.0
78694;SHT31;68029;51.978;5.646;2023-03-23T05:28:56;14.1;66.9
78694;SHT31;68029;51.978;5.646;2023-03-23T05:31:26;14.1;67.0
78694;SHT31;68029;51.978;5.646;2023-03-23T05:33:56;14.1;66.5
78694;SHT31;68029;51.978;5.646;2023-03-23T05:36:25;14.1;67.1
78694;SHT31;68029;51.978;5.646;2023-03-23T05:38:56;14.1;67.1
78694;SHT31;68029;51.978;5.646;2023-03-23T05:41:27;14.1;67.3
78694;SHT31;68029;51.978;5.646;2023-03-23T05:43:56;14.1;67.1
78694;SHT31;68029;51.978;5.646;2023-03-23T05:46:26;14.0;67.3
78694;SHT31;68029;51.978;5.646;2023-03-23T05:48:55;14.0;67.3
78694;SHT31;68029;51.978;5.646;2023-03-23T05:51:27;14.0;67.2
78694;SHT31;68029;51.978;5.646;2023-03-23T05:53:57;14.0;67.2
78694;SHT31;68029;51.978;5.646;2023-03-23T05:56:26;14.0;67.0
78694;SHT31;68029;51.978;5.646;2023-03-23T05:58:58;14.0;67.4
78694;SHT31;68029;51.978;5.646;2023-03-23T06:01:28;13.9;67.4
78694;SHT31;68029;51.978;5.646;2023-03-23T06:03:59;13.9;67.6
78694;SHT31;68029;51.978;5.646;2023-03-23T06:06:29;13.9;67.4
78694;SHT31;68029;51.978;5.646;2023-03-23T06:08:59;13.9;67.9
78694;SHT31;68029;51.978;5.646;2023-03-23T06:11:32;13.9;67.5
78694;SHT31;68029;51.978;5.646;2023-03-23T06:14:03;13.9;67.7
78694;SHT31;68029;51.978;5.646;2023-03-23T06:16:33;13.9;67.6
78694;SHT31;68029;51.978;5.646;2023-03-23T06:19:03;14.0;67.6
78694;SHT31;68029;51.978;5.646;2023-03-23T06:21:33;14.0;67.6
78694;SHT31;68029;51.978;5.646;2023-03-23T06:24:03;14.0;67.6
78694;SHT31;68029;51.978;5.646;2023-03-23T06:26:35;14.0;68.0
78694;SHT31;68029;51.978;5.646;2023-03-23T06:29:06;14.0;67.2
78694;SHT31;68029;51.978;5.646;2023-03-23T06:31:40;14.0;67.6
78694;SHT31;68029;51.978;5.646;2023-03-23T06:34:11;14.0;67.3
78694;SHT31;68029;51.978;5.646;2023-03-23T06:36:41;14.0;67.4
78694;SHT31;68029;51.978;5.646;2023-03-23T06:39:12;14.0;67.8
78694;SHT31;68029;51.978;5.646;2023-03-23T06:41:44;14.0;67.5
78694;SHT31;68029;51.978;5.646;2023-03-23T06:44:14;14.0;67.9
78694;SHT31;68029;51.978;5.646;2023-03-23T06:46:43;14.0;67.7
78694;SHT31;68029;51.978;5.646;2023-03-23T06:49:13;14.1;67.9
78694;SHT31;68029;51.978;5.646;2023-03-23T06:51:43;14.1;68.0
78694;SHT31;68029;51.978;5.646;2023-03-23T06:54:13;14.1;67.9
78694;SHT31;68029;51.978;5.646;2023-03-23T06:56:42;14.1;67.7
78694;SHT31;68029;51.978;5.646;2023-03-23T06:59:13;14.1;67.2
78694;SHT31;68029;51.978;5.646;2023-03-23T07:01:42;14.1;67.6
78694;SHT31;68029;51.978;5.646;2023-03-23T07:04:13;14.1;67.3
78694;SHT31;68029;51.978;5.646;2023-03-23T07:06:43;14.1;67.4
78694;SHT31;68029;51.978;5.646;2023-03-23T07:09:13;14.1;67.6
78694;SHT31;68029;51.978;5.646;2023-03-23T07:11:43;14.1;67.3
78694;SHT31;68029;51.978;5.646;2023-03-23T07:14:15;14.1;66.9
78694;SHT31;68029;51.978;5.646;2023-03-23T07:16:44;14.1;67.4
78694;SHT31;68029;51.978;5.646;2023-03-23T07:19:14;14.1;67.4
78694;SHT31;68029;51.978;5.646;2023-03-23T07:21:44;14.1;67.7
78694;SHT31;68029;51.978;5.646;2023-03-23T07:24:13;14.1;67.8
78694;SHT31;68029;51.978;5.646;2023-03-23T07:26:44;14.1;68.2
78694;SHT31;68029;51.978;5.646;2023-03-23T07:29:13;14.2;67.9
78694;SHT31;68029;51.978;5.646;2023-03-23T07:31:43;14.2;67.8
78694;SHT31;68029;51.978;5.646;2023-03-23T07:34:13;14.2;67.8
78694;SHT31;68029;51.978;5.646;2023-03-23T07:36:42;14.3;67.6
78694;SHT31;68029;51.978;5.646;2023-03-23T07:39:13;14.3;67.5
78694;SHT31;68029;51.978;5.646;2023-03-23T07:41:44;14.3;66.7
78694;SHT31;68029;51.978;5.646;2023-03-23T07:44:14;14.3;66.9
78694;SHT31;68029;51.978;5.646;2023-03-23T07:46:44;14.3;66.8
78694;SHT31;68029;51.978;5.646;2023-03-23T07:49:14;14.2;67.3
78694;SHT31;68029;51.978;5.646;2023-03-23T07:51:44;14.2;67.7
78694;SHT31;68029;51.978;5.646;2023-03-23T07:54:16;14.2;68.2
78694;SHT31;68029;51.978;5.646;2023-03-23T07:56:45;14.2;68.2
78694;SHT31;68029;51.978;5.646;2023-03-23T07:59:15;14.1;68.9
78694;SHT31;68029;51.978;5.646;2023-03-23T08:01:44;14.1;69.3
78694;SHT31;68029;51.978;5.646;2023-03-23T08:04:14;14.1;69.3
78694;SHT31;68029;51.978;5.646;2023-03-23T08:06:47;14.1;70.3
78694;SHT31;68029;51.978;5.646;2023-03-23T08:09:19;14.0;70.0
78694;SHT31;68029;51.978;5.646;2023-03-23T08:11:49;14.0;70.5
78694;SHT31;68029;51.978;5.646;2023-03-23T08:14:19;13.9;71.1
78694;SHT31;68029;51.978;5.646;2023-03-23T08:16:48;13.9;71.9
78694;SHT31;68029;51.978;5.646;2023-03-23T08:19:18;13.8;72.6
78694;SHT31;68029;51.978;5.646;2023-03-23T08:21:48;13.8;72.6
78694;SHT31;68029;51.978;5.646;2023-03-23T08:24:20;13.7;73.0
78694;SHT31;68029;51.978;5.646;2023-03-23T08:26:51;13.7;73.1
78694;SHT31;68029;51.978;5.646;2023-03-23T08:29:20;13.7;72.9
78694;SHT31;68029;51.978;5.646;2023-03-23T08:31:50;13.6;73.0
78694;SHT31;68029;51.978;5.646;2023-03-23T08:34:21;13.6;72.7
78694;SHT31;68029;51.978;5.646;2023-03-23T08:36:51;13.6;73.1
78694;SHT31;68029;51.978;5.646;2023-03-23T08:39:21;13.7;72.9
78694;SHT31;68029;51.978;5.646;2023-03-23T08:41:54;13.7;72.8
78694;SHT31;68029;51.978;5.646;2023-03-23T08:44:23;13.7;73.1
78694;SHT31;68029;51.978;5.646;2023-03-23T08:46:53;13.7;71.3
78694;SHT31;68029;51.978;5.646;2023-03-23T08:49:24;13.7;71.2
78694;SHT31;68029;51.978;5.646;2023-03-23T08:51:54;13.7;70.3
78694;SHT31;68029;51.978;5.646;2023-03-23T08:54:24;13.7;71.1
78694;SHT31;68029;51.978;5.646;2023-03-23T08:56:54;13.8;70.4
78694;SHT31;68029;51.978;5.646;2023-03-23T08:59:23;13.8;69.5
78694;SHT31;68029;51.978;5.646;2023-03-23T09:01:53;13.8;71.0
78694;SHT31;68029;51.978;5.646;2023-03-23T09:04:23;13.8;71.3
78694;SHT31;68029;51.978;5.646;2023-03-23T09:06:55;13.8;70.0
78694;SHT31;68029;51.978;5.646;2023-03-23T09:09:25;13.8;71.3
78694;SHT31;68029;51.978;5.646;2023-03-23T09:11:55;13.9;69.6
78694;SHT31;68029;51.978;5.646;2023-03-23T09:14:24;13.9;70.0
78694;SHT31;68029;51.978;5.646;2023-03-23T09:16:54;14.0;70.1
78694;SHT31;68029;51.978;5.646;2023-03-23T09:19:23;14.1;69.3
78694;SHT31;68029;51.978;5.646;2023-03-23T09:21:53;14.3;68.8
78694;SHT31;68029;51.978;5.646;2023-03-23T09:24:22;14.4;66.9
78694;SHT31;68029;51.978;5.646;2023-03-23T09:26:52;14.5;66.2
78694;SHT31;68029;51.978;5.646;2023-03-23T09:29:22;14.6;65.6
78694;SHT31;68029;51.978;5.646;2023-03-23T09:31:54;14.7;64.6
78694;SHT31;68029;51.978;5.646;2023-03-23T09:34:24;14.8;65.1
78694;SHT31;68029;51.978;5.646;2023-03-23T09:36:56;14.9;63.5
78694;SHT31;68029;51.978;5.646;2023-03-23T09:39:26;14.9;64.0
78694;SHT31;68029;51.978;5.646;2023-03-23T09:42:11;14.9;64.3
78694;SHT31;68029;51.978;5.646;2023-03-23T09:45:00;15.0;64.6
78694;SHT31;68029;51.978;5.646;2023-03-23T09:47:37;15.1;65.1
78694;SHT31;68029;51.978;5.646;2023-03-23T09:50:15;15.4;64.8
78694;SHT31;68029;51.978;5.646;2023-03-23T09:52:50;15.6;62.5
78694;SHT31;68029;51.978;5.646;2023-03-23T09:55:21;16.0;62.4
78694;SHT31;68029;51.978;5.646;2023-03-23T09:57:59;16.4;61.2
78694;SHT31;68029;51.978;5.646;2023-03-23T10:00:35;16.7;60.3
78694;SHT31;68029;51.978;5.646;2023-03-23T10:03:14;17.0;58.5
78694;SHT31;68029;51.978;5.646;2023-03-23T10:05:47;17.4;56.7
78694;SHT31;68029;51.978;5.646;2023-03-23T10:08:19;17.6;58.3
78694;SHT31;68029;51.978;5.646;2023-03-23T10:11:00;17.8;54.1
78694;SHT31;68029;51.978;5.646;2023-03-23T10:13:46;18.0;54.3
78694;SHT31;68029;51.978;5.646;2023-03-23T10:16:22;18.1;52.9
78694;SHT31;68029;51.978;5.646;2023-03-23T10:19:02;18.2;55.1
78694;SHT31;68029;51.978;5.646;2023-03-23T10:21:39;18.3;53.8
78694;SHT31;68029;51.978;5.646;2023-03-23T10:24:14;18.5;53.0
78694;SHT31;68029;51.978;5.646;2023-03-23T10:26:50;18.5;51.3
78694;SHT31;68029;51.978;5.646;2023-03-23T10:29:26;18.6;52.2
78694;SHT31;68029;51.978;5.646;2023-03-23T10:32:01;18.6;51.2
78694;SHT31;68029;51.978;5.646;2023-03-23T10:34:42;18.7;50.4
78694;SHT31;68029;51.978;5.646;2023-03-23T10:37:18;18.7;50.4
78694;SHT31;68029;51.978;5.646;2023-03-23T10:39:52;18.7;50.8
78694;SHT31;68029;51.978;5.646;2023-03-23T10:42:27;18.7;51.1
78694;SHT31;68029;51.978;5.646;2023-03-23T10:45:00;18.7;51.2
78694;SHT31;68029;51.978;5.646;2023-03-23T10:47:30;18.7;50.6
78694;SHT31;68029;51.978;5.646;2023-03-23T10:50:03;18.8;51.3
78694;SHT31;68029;51.978;5.646;2023-03-23T10:52:36;18.9;49.8
78694;SHT31;68029;51.978;5.646;2023-03-23T10:55:09;19.0;50.0
78694;SHT31;68029;51.978;5.646;2023-03-23T10:57:41;19.2;48.2
78694;SHT31;68029;51.978;5.646;2023-03-23T11:00:19;19.3;48.0
78694;SHT31;68029;51.978;5.646;2023-03-23T11:02:58;19.4;48.4
78694;SHT31;68029;51.978;5.646;2023-03-23T11:05:37;19.5;47.0
78694;SHT31;68029;51.978;5.646;2023-03-23T11:08:14;19.5;47.5
78694;SHT31;68029;51.978;5.646;2023-03-23T11:10:50;19.5;45.7
78694;SHT31;68029;51.978;5.646;2023-03-23T11:13:23;19.4;45.4
78694;SHT31;68029;51.978;5.646;2023-03-23T11:15:56;19.3;47.6
78694;SHT31;68029;51.978;5.646;2023-03-23T11:18:36;19.3;47.8
78694;SHT31;68029;51.978;5.646;2023-03-23T11:21:10;19.3;45.4
78694;SHT31;68029;51.978;5.646;2023-03-23T11:23:42;19.2;46.4
78694;SHT31;68029;51.978;5.646;2023-03-23T11:26:16;19.1;47.6
78694;SHT31;68029;51.978;5.646;2023-03-23T11:28:52;18.9;48.4
78694;SHT31;68029;51.978;5.646;2023-03-23T11:31:28;18.7;48.2
78694;SHT31;68029;51.978;5.646;2023-03-23T11:34:01;18.4;49.4
78694;SHT31;68029;51.978;5.646;2023-03-23T11:36:35;18.2;50.6
78694;SHT31;68029;51.978;5.646;2023-03-23T11:39:21;18.1;50.3
78694;SHT31;68029;51.978;5.646;2023-03-23T11:41:52;17.9;51.4
78694;SHT31;68029;51.978;5.646;2023-03-23T11:44:23;17.9;51.7
78694;SHT31;68029;51.978;5.646;2023-03-23T11:47:00;17.8;51.5
78694;SHT31;68029;51.978;5.646;2023-03-23T11:49:41;17.8;51.0
78694;SHT31;68029;51.978;5.646;2023-03-23T11:52:19;17.8;52.1
78694;SHT31;68029;51.978;5.646;2023-03-23T11:54:58;17.8;50.5
78694;SHT31;68029;51.978;5.646;2023-03-23T11:57:32;17.8;50.5
78694;SHT31;68029;51.978;5.646;2023-03-23T12:00:02;17.8;50.7
78694;SHT31;68029;51.978;5.646;2023-03-23T12:04:08;17.8;51.5
78694;SHT31;68029;51.978;5.646;2023-03-23T12:06:49;17.8;50.2
78694;SHT31;68029;51.978;5.646;2023-03-23T12:09:38;17.9;48.5
78694;SHT31;68029;51.978;5.646;2023-03-23T12:12:16;17.9;49.2
78694;SHT31;68029;51.978;5.646;2023-03-23T12:14:59;17.9;49.1
78694;SHT31;68029;51.978;5.646;2023-03-23T12:17:45;17.9;49.1
78694;SHT31;68029;51.978;5.646;2023-03-23T12:20:32;17.9;52.0
78694;SHT31;68029;51.978;5.646;2023-03-23T12:23:11;17.9;54.0
78694;SHT31;68029;51.978;5.646;2023-03-23T12:25:54;17.7;55.9
78694;SHT31;68029;51.978;5.646;2023-03-23T12:28:35;17.4;55.8
78694;SHT31;68029;51.978;5.646;2023-03-23T12:31:14;17.2;56.5
78694;SHT31;68029;51.978;5.646;2023-03-23T12:33:53;16.9;58.0
78694;SHT31;68029;51.978;5.646;2023-03-23T12:36:39;16.6;58.7
78694;SHT31;68029;51.978;5.646;2023-03-23T12:39:45;16.2;60.5
78694;SHT31;68029;51.978;5.646;2023-03-23T12:42:27;15.9;62.0
78694;SHT31;68029;51.978;5.646;2023-03-23T12:45:07;15.7;62.9
78694;SHT31;68029;51.978;5.646;2023-03-23T12:47:49;15.6;63.1
78694;SHT31;68029;51.978;5.646;2023-03-23T12:50:26;15.5;64.5
78694;SHT31;68029;51.978;5.646;2023-03-23T12:53:02;15.4;65.9
78694;SHT31;68029;51.978;5.646;2023-03-23T12:55:37;15.4;64.8
78694;SHT31;68029;51.978;5.646;2023-03-23T12:58:15;15.4;64.5
78694;SHT31;68029;51.978;5.646;2023-03-23T13:00:57;15.4;65.8
78694;SHT31;68029;51.978;5.646;2023-03-23T13:03:36;15.4;64.7
78694;SHT31;68029;51.978;5.646;2023-03-23T13:06:15;15.4;65.6
78694;SHT31;68029;51.978;5.646;2023-03-23T13:08:51;15.5;64.9
78694;SHT31;68029;51.978;5.646;2023-03-23T13:11:30;15.6;63.1
78694;SHT31;68029;51.978;5.646;2023-03-23T13:14:15;15.6;64.1
78694;SHT31;68029;51.978;5.646;2023-03-23T13:16:58;15.7;64.0
78694;SHT31;68029;51.978;5.646;2023-03-23T13:19:51;15.9;62.7
78694;SHT31;68029;51.978;5.646;2023-03-23T13:22:15;16.3;63.9
78694;SHT31;68029;51.978;5.646;2023-03-23T13:24:53;16.8;64.9
78694;SHT31;68029;51.978;5.646;2023-03-23T13:27:26;17.4;61.0
78694;SHT31;68029;51.978;5.646;2023-03-23T13:29:57;18.0;57.0
78694;SHT31;68029;51.978;5.646;2023-03-23T13:32:33;18.5;55.1
78694;SHT31;68029;51.978;5.646;2023-03-23T13:35:13;18.9;55.8
78694;SHT31;68029;51.978;5.646;2023-03-23T13:37:50;19.2;52.4
78694;SHT31;68029;51.978;5.646;2023-03-23T13:40:26;19.5;52.1
78694;SHT31;68029;51.978;5.646;2023-03-23T13:42:57;19.6;52.1
78694;SHT31;68029;51.978;5.646;2023-03-23T13:45:45;19.6;50.3
78694;SHT31;68029;51.978;5.646;2023-03-23T13:48:24;19.6;50.0
78694;SHT31;68029;51.978;5.646;2023-03-23T13:50:57;19.5;50.7
78694;SHT31;68029;51.978;5.646;2023-03-23T13:53:30;19.4;50.8
78694;SHT31;68029;51.978;5.646;2023-03-23T13:56:16;19.3;51.5
78694;SHT31;68029;51.978;5.646;2023-03-23T13:58:49;19.1;51.2
78694;SHT31;68029;51.978;5.646;2023-03-23T14:01:33;18.9;52.0
78694;SHT31;68029;51.978;5.646;2023-03-23T14:04:05;18.6;54.0
78694;SHT31;68029;51.978;5.646;2023-03-23T14:06:37;18.4;54.6
78694;SHT31;68029;51.978;5.646;2023-03-23T14:09:12;18.2;55.6
78694;SHT31;68029;51.978;5.646;2023-03-23T14:11:57;18.0;56.5
78694;SHT31;68029;51.978;5.646;2023-03-23T14:14:32;17.9;56.5
78694;SHT31;68029;51.978;5.646;2023-03-23T14:17:16;17.8;57.5
78694;SHT31;68029;51.978;5.646;2023-03-23T14:19:50;17.6;56.6
78694;SHT31;68029;51.978;5.646;2023-03-23T14:22:26;17.5;58.4
78694;SHT31;68029;51.978;5.646;2023-03-23T14:25:02;17.4;59.0
78694;SHT31;68029;51.978;5.646;2023-03-23T14:27:36;17.3;56.8
78694;SHT31;68029;51.978;5.646;2023-03-23T14:30:08;17.3;55.9
78694;SHT31;68029;51.978;5.646;2023-03-23T14:32:42;17.2;55.0
78694;SHT31;68029;51.978;5.646;2023-03-23T14:35:19;17.2;55.6
78694;SHT31;68029;51.978;5.646;2023-03-23T14:37:53;17.3;55.0
78694;SHT31;68029;51.978;5.646;2023-03-23T14:40:26;17.5;54.3
78694;SHT31;68029;51.978;5.646;2023-03-23T14:42:57;17.9;54.2
78694;SHT31;68029;51.978;5.646;2023-03-23T14:45:29;18.3;53.0
78694;SHT31;68029;51.978;5.646;2023-03-23T14:48:02;18.8;53.1
78694;SHT31;68029;51.978;5.646;2023-03-23T14:50:40;19.2;49.5
78694;SHT31;68029;51.978;5.646;2023-03-23T14:53:18;19.5;48.7
78694;SHT31;68029;51.978;5.646;2023-03-23T14:55:50;19.7;48.5
78694;SHT31;68029;51.978;5.646;2023-03-23T14:58:22;19.9;47.1
78694;SHT31;68029;51.978;5.646;2023-03-23T15:00:58;20.0;47.6
78694;SHT31;68029;51.978;5.646;2023-03-23T15:03:33;20.1;46.9
78694;SHT31;68029;51.978;5.646;2023-03-23T15:06:09;20.2;48.0
78694;SHT31;68029;51.978;5.646;2023-03-23T15:08:42;20.3;47.1
78694;SHT31;68029;51.978;5.646;2023-03-23T15:11:26;20.4;45.3
78694;SHT31;68029;51.978;5.646;2023-03-23T15:13:58;20.5;46.5
78694;SHT31;68029;51.978;5.646;2023-03-23T15:16:33;20.5;45.3
78694;SHT31;68029;51.978;5.646;2023-03-23T15:19:05;20.5;45.7
78694;SHT31;68029;51.978;5.646;2023-03-23T15:21:50;20.4;45.5
78694;SHT31;68029;51.978;5.646;2023-03-23T15:24:26;20.2;45.1
78694;SHT31;68029;51.978;5.646;2023-03-23T15:27:12;20.1;45.3
78694;SHT31;68029;51.978;5.646;2023-03-23T15:29:51;19.9;46.0
78694;SHT31;68029;51.978;5.646;2023-03-23T15:32:26;19.8;46.4
78694;SHT31;68029;51.978;5.646;2023-03-23T15:34:57;19.7;46.4
78694;SHT31;68029;51.978;5.646;2023-03-23T15:37:30;19.5;47.0
78694;SHT31;68029;51.978;5.646;2023-03-23T15:40:00;19.4;47.1
78694;SHT31;68029;51.978;5.646;2023-03-23T15:42:31;19.2;48.2
78694;SHT31;68029;51.978;5.646;2023-03-23T15:45:24;19.1;48.9
78694;SHT31;68029;51.978;5.646;2023-03-23T15:48:04;18.9;49.1
78694;SHT31;68029;51.978;5.646;2023-03-23T15:50:36;18.8;49.8
78694;SHT31;68029;51.978;5.646;2023-03-23T15:53:27;18.8;50.9
78694;SHT31;68029;51.978;5.646;2023-03-23T15:55:58;18.7;50.6
78694;SHT31;68029;51.978;5.646;2023-03-23T15:58:29;18.7;50.3
78694;SHT31;68029;51.978;5.646;2023-03-23T16:01:02;18.6;51.7
78694;SHT31;68029;51.978;5.646;2023-03-23T16:03:38;18.6;51.5
78694;SHT31;68029;51.978;5.646;2023-03-23T16:06:12;18.6;51.5
78694;SHT31;68029;51.978;5.646;2023-03-23T16:08:42;18.5;51.5
78694;SHT31;68029;51.978;5.646;2023-03-23T16:11:14;18.5;51.4
78694;SHT31;68029;51.978;5.646;2023-03-23T16:13:45;18.5;51.3
78694;SHT31;68029;51.978;5.646;2023-03-23T16:16:22;18.4;51.5
78694;SHT31;68029;51.978;5.646;2023-03-23T16:18:52;18.3;52.4
78694;SHT31;68029;51.978;5.646;2023-03-23T16:21:22;18.3;51.0
78694;SHT31;68029;51.978;5.646;2023-03-23T16:23:52;18.2;51.1
78694;SHT31;68029;51.978;5.646;2023-03-23T16:26:24;18.1;51.4
78694;SHT31;68029;51.978;5.646;2023-03-23T16:28:53;18.0;52.3
78694;SHT31;68029;51.978;5.646;2023-03-23T16:31:23;17.9;52.8
78694;SHT31;68029;51.978;5.646;2023-03-23T16:33:53;17.8;51.9
78694;SHT31;68029;51.978;5.646;2023-03-23T16:36:24;17.7;52.0
78694;SHT31;68029;51.978;5.646;2023-03-23T16:38:54;17.6;52.5
78694;SHT31;68029;51.978;5.646;2023-03-23T16:41:23;17.5;52.9
78694;SHT31;68029;51.978;5.646;2023-03-23T16:43:53;17.4;53.4
78694;SHT31;68029;51.978;5.646;2023-03-23T16:46:22;17.3;53.8
78694;SHT31;68029;51.978;5.646;2023-03-23T16:48:52;17.2;53.7